createdAt,value
2018-09-29T00:02:03.927Z,5.97
2018-09-29T00:04:34.568Z,4.90
2018-09-29T00:07:05.022Z,5.97
2018-09-29T00:09:35.977Z,6.03
2018-09-29T00:12:05.941Z,5.67
2018-09-29T00:14:36.433Z,5.40
2018-09-29T00:17:06.887Z,5.13
2018-09-29T00:19:37.337Z,5.90
2018-09-29T00:22:07.500Z,5.47
2018-09-29T00:24:38.965Z,5.50
2018-09-29T00:27:09.719Z,5.40
2018-09-29T00:29:40.148Z,5.53
2018-09-29T00:32:10.627Z,6.20
2018-09-29T00:34:40.917Z,6.93
2018-09-29T00:37:11.436Z,5.70
2018-09-29T00:39:41.953Z,5.97
2018-09-29T00:42:11.480Z,5.77
2018-09-29T00:44:42.796Z,5.27
2018-09-29T00:47:13.203Z,6.03
2018-09-29T00:49:42.858Z,5.90
2018-09-29T00:52:13.029Z,5.60
2018-09-29T00:54:44.755Z,6.20
2018-09-29T00:57:14.205Z,5.13
2018-09-29T00:59:45.292Z,6.40
2018-09-29T01:02:16.522Z,6.27
2018-09-29T01:04:47.623Z,6.00
2018-09-29T01:07:18.720Z,6.77
2018-09-29T01:09:49.671Z,5.93
2018-09-29T01:12:19.971Z,6.00
2018-09-29T01:14:50.454Z,6.10
2018-09-29T01:17:21.763Z,6.93
2018-09-29T01:19:52.365Z,6.30
2018-09-29T01:22:22.796Z,5.67
2018-09-29T01:24:53.073Z,5.60
2018-09-29T01:27:23.780Z,6.20
2018-09-29T01:29:54.109Z,5.50
2018-09-29T01:32:24.639Z,5.03
2018-09-29T01:34:55.775Z,5.57
2018-09-29T01:37:26.497Z,6.27
2018-09-29T01:39:56.079Z,6.17
2018-09-29T01:42:26.550Z,6.23
2018-09-29T01:44:56.971Z,6.93
2018-09-29T01:47:27.203Z,7.00
2018-09-29T01:49:58.335Z,6.03
2018-09-29T01:52:28.397Z,6.47
2018-09-29T01:54:59.453Z,6.70
2018-09-29T01:57:30.640Z,6.03
2018-09-29T02:00:01.812Z,5.33
2018-09-29T02:02:32.107Z,6.60
2018-09-29T02:05:03.056Z,6.10
2018-09-29T02:07:33.184Z,5.50
2018-09-29T02:10:02.631Z,6.83
2018-09-29T02:12:32.811Z,6.40
2018-09-29T02:15:04.308Z,6.10
2018-09-29T02:17:35.032Z,6.57
2018-09-29T02:20:05.480Z,6.40
2018-09-29T02:22:35.849Z,6.17
2018-09-29T02:25:07.339Z,6.30
2018-09-29T02:27:37.885Z,7.13
2018-09-29T02:30:08.225Z,6.93
2018-09-29T02:32:38.845Z,7.17
2018-09-29T02:35:10.069Z,5.60
2018-09-29T02:37:40.740Z,5.73
2018-09-29T02:40:11.101Z,6.57
2018-09-29T02:42:41.633Z,5.80
2018-09-29T02:45:12.152Z,7.70
2018-09-29T02:47:43.309Z,7.37
2018-09-29T02:50:14.095Z,6.70
2018-09-29T02:52:44.572Z,6.63
2018-09-29T02:55:14.744Z,6.90
2018-09-29T02:57:45.448Z,6.53
2018-09-29T03:00:15.752Z,6.20
2018-09-29T03:02:46.694Z,7.23
2018-09-29T03:05:18.420Z,7.27
2018-09-29T03:07:49.099Z,6.67
2018-09-29T03:10:20.663Z,6.93
2018-09-29T03:12:51.283Z,5.27
2018-09-29T03:15:22.229Z,7.63
2018-09-29T03:17:53.240Z,7.43
2018-09-29T03:20:23.592Z,7.57
2018-09-29T03:22:54.169Z,7.37
2018-09-29T03:25:25.552Z,6.40
2018-09-29T03:27:55.809Z,5.80
2018-09-29T03:30:26.571Z,6.27
2018-09-29T03:32:57.764Z,6.23
2018-09-29T03:35:28.487Z,6.67
2018-09-29T03:37:59.547Z,6.40
2018-09-29T03:40:30.443Z,6.30
2018-09-29T03:43:00.925Z,6.00
2018-09-29T03:45:31.961Z,6.40
2018-09-29T03:48:02.787Z,6.03
2018-09-29T03:50:33.373Z,7.37
2018-09-29T03:53:03.765Z,7.13
2018-09-29T03:55:34.190Z,7.53
2018-09-29T03:58:04.663Z,6.70
2018-09-29T04:00:35.132Z,5.93
2018-09-29T04:03:05.974Z,5.93
2018-09-29T04:05:35.972Z,6.47
2018-09-29T04:08:06.904Z,5.80
2018-09-29T04:10:37.677Z,6.60
2018-09-29T04:13:07.708Z,6.83
2018-09-29T04:15:39.547Z,6.40
2018-09-29T04:18:10.614Z,6.43
2018-09-29T04:20:43.750Z,8.00
2018-09-29T04:23:16.255Z,6.30
2018-09-29T04:25:47.334Z,6.60
2018-09-29T04:28:25.239Z,6.80
2018-09-29T04:30:59.195Z,7.67
2018-09-29T04:33:30.469Z,7.20
2018-09-29T04:36:00.789Z,7.73
2018-09-29T04:38:31.559Z,8.37
2018-09-29T04:41:02.441Z,8.43
2018-09-29T04:43:34.636Z,9.37
2018-09-29T04:46:06.558Z,8.97
2018-09-29T04:48:37.160Z,9.83
2018-09-29T04:51:08.334Z,10.00
2018-09-29T04:53:39.226Z,10.20
2018-09-29T04:56:10.619Z,10.43
2018-09-29T04:58:41.708Z,9.17
2018-09-29T05:01:21.047Z,10.90
2018-09-29T05:04:55.832Z,9.63
2018-09-29T05:18:48.015Z,9.70
2018-09-29T05:21:24.504Z,8.83
2018-09-29T05:23:55.785Z,10.20
2018-09-29T05:26:32.009Z,9.77
2018-09-29T05:29:05.297Z,8.67
2018-09-29T05:32:07.148Z,10.00
2018-09-29T05:34:42.120Z,9.37
2018-09-29T05:37:20.109Z,10.53
2018-09-29T06:08:34.100Z,8.30
2018-09-29T06:11:12.137Z,7.60
2018-09-29T06:13:43.073Z,7.87
2018-09-29T06:16:13.984Z,7.43
2018-09-29T06:18:45.082Z,8.20
2018-09-29T06:21:16.027Z,6.43
2018-09-29T06:23:45.592Z,7.10
2018-09-29T06:26:16.188Z,6.77
2018-09-29T06:28:46.329Z,5.67
2018-09-29T06:31:17.203Z,6.87
2018-09-29T06:33:47.057Z,6.27
2018-09-29T06:36:15.789Z,5.97
2018-09-29T06:38:44.607Z,4.90
2018-09-29T06:41:14.628Z,6.20
2018-09-29T06:43:44.508Z,5.30
2018-09-29T06:46:15.224Z,5.60
2018-09-29T06:48:43.983Z,5.30
2018-09-29T06:51:14.091Z,5.40
2018-09-29T06:53:43.969Z,5.27
2018-09-29T06:56:13.773Z,6.00
2018-09-29T06:58:43.688Z,4.23
2018-09-29T07:01:13.576Z,4.47
2018-09-29T07:03:43.415Z,4.30
2018-09-29T07:06:13.921Z,4.70
2018-09-29T07:08:43.879Z,4.67
2018-09-29T07:11:16.024Z,4.00
2018-09-29T07:13:45.811Z,4.70
2018-09-29T07:16:15.782Z,4.60
2018-09-29T07:18:46.595Z,4.27
2018-09-29T07:21:16.235Z,4.30
2018-09-29T07:23:47.456Z,3.70
2018-09-29T07:26:19.113Z,3.07
2018-09-29T07:28:48.530Z,3.80
2018-09-29T07:31:17.340Z,3.40
2018-09-29T07:33:47.827Z,3.97
2018-09-29T07:36:17.760Z,3.07
2018-09-29T07:38:46.408Z,3.67
2018-09-29T07:41:15.037Z,3.63
2018-09-29T07:43:45.201Z,4.47
2018-09-29T07:46:16.288Z,3.27
2018-09-29T07:48:46.896Z,4.23
2018-09-29T07:51:16.924Z,3.37
2018-09-29T07:53:46.844Z,3.40
2018-09-29T07:56:17.824Z,3.60
2018-09-29T07:58:48.536Z,3.70
2018-09-29T08:01:19.511Z,3.90
2018-09-29T08:03:52.077Z,3.70
2018-09-29T08:06:23.895Z,3.60
2018-09-29T08:08:54.987Z,4.40
2018-09-29T08:11:25.734Z,2.90
2018-09-29T08:13:56.869Z,3.10
2018-09-29T08:16:31.511Z,4.63
2018-09-29T08:19:02.660Z,3.50
2018-09-29T08:21:39.601Z,3.60
2018-09-29T08:24:10.606Z,3.70
2018-09-29T08:26:40.306Z,4.13
2018-09-29T08:29:11.254Z,3.70
2018-09-29T08:31:41.068Z,3.03
2018-09-29T08:34:10.928Z,3.20
2018-09-29T08:36:39.779Z,2.90
2018-09-29T08:39:10.547Z,3.07
2018-09-29T08:41:40.506Z,3.17
2018-09-29T08:44:10.988Z,2.77
2018-09-29T08:46:41.287Z,3.90
2018-09-29T08:49:12.137Z,4.40
2018-09-29T08:51:42.869Z,2.80
2018-09-29T08:54:12.872Z,3.10
2018-09-29T08:56:42.732Z,3.90
2018-09-29T08:59:12.604Z,4.67
2018-09-29T09:01:42.468Z,3.00
2018-09-29T09:04:13.276Z,3.67
2018-09-29T09:06:43.243Z,3.70
2018-09-29T09:09:13.094Z,4.40
2018-09-29T09:11:42.973Z,4.10
2018-09-29T09:14:12.628Z,4.00
2018-09-29T09:16:42.484Z,3.00
2018-09-29T09:19:12.510Z,3.03
2018-09-29T09:21:42.183Z,3.03
2018-09-29T09:24:12.338Z,3.30
2018-09-29T09:26:43.211Z,2.70
2018-09-29T09:29:13.055Z,3.37
2018-09-29T09:31:42.933Z,3.07
2018-09-29T09:34:12.816Z,2.90
2018-09-29T09:36:42.676Z,3.50
2018-09-29T09:39:13.539Z,2.77
2018-09-29T09:41:44.389Z,2.80
2018-09-29T09:44:14.310Z,2.77
2018-09-29T09:46:45.180Z,3.50
2018-09-29T09:49:16.058Z,2.00
2018-09-29T09:51:45.931Z,2.30
2018-09-29T09:54:15.804Z,2.63
2018-09-29T09:56:46.668Z,2.33
2018-09-29T09:59:16.569Z,2.20
2018-09-29T10:01:52.539Z,2.13
2018-09-29T10:04:23.241Z,2.30
2018-09-29T10:06:53.666Z,3.10
2018-09-29T10:09:24.648Z,2.10
2018-09-29T10:11:55.019Z,2.53
2018-09-29T10:14:24.869Z,3.03
2018-09-29T10:16:54.765Z,2.40
2018-09-29T10:19:24.616Z,3.10
2018-09-29T10:21:54.506Z,2.10
2018-09-29T10:24:24.347Z,3.00
2018-09-29T10:26:54.235Z,2.77
2018-09-29T10:29:24.111Z,2.90
2018-09-29T10:31:53.990Z,1.90
2018-09-29T10:34:24.823Z,1.70
2018-09-29T10:36:55.755Z,2.90
2018-09-29T10:39:25.625Z,2.40
2018-09-29T10:41:55.302Z,2.93
2018-09-29T10:44:25.077Z,2.90
2018-09-29T10:46:55.203Z,3.10
2018-09-29T10:49:25.653Z,3.20
2018-09-29T10:51:56.885Z,3.30
2018-09-29T10:54:27.803Z,3.77
2018-09-29T10:56:57.724Z,4.23
2018-09-29T10:59:27.544Z,3.40
2018-09-29T11:01:57.184Z,3.27
2018-09-29T11:04:28.295Z,3.50
2018-09-29T11:06:59.206Z,3.33
2018-09-29T11:09:29.071Z,4.80
2018-09-29T11:11:59.517Z,4.40
2018-09-29T11:14:29.874Z,3.70
2018-09-29T11:17:01.257Z,3.40
2018-09-29T11:19:31.567Z,3.20
2018-09-29T11:22:01.443Z,3.30
2018-09-29T11:24:32.145Z,3.73
2018-09-29T11:27:02.195Z,3.60
2018-09-29T11:29:32.045Z,4.00
2018-09-29T11:32:01.904Z,3.73
2018-09-29T11:34:32.703Z,3.33
2018-09-29T11:37:02.646Z,3.80
2018-09-29T11:39:33.297Z,3.90
2018-09-29T11:42:05.111Z,3.23
2018-09-29T11:44:36.282Z,4.00
2018-09-29T11:47:07.154Z,3.40
2018-09-29T11:49:38.115Z,2.93
2018-09-29T11:52:08.532Z,3.00
2018-09-29T11:54:38.696Z,3.33
2018-09-29T11:57:08.654Z,3.70
2018-09-29T11:59:38.522Z,2.77
2018-09-29T12:02:08.431Z,2.80
2018-09-29T12:04:39.535Z,3.70
2018-09-29T12:07:10.134Z,2.47
2018-09-29T12:09:40.606Z,2.80
2018-09-29T12:12:11.456Z,3.17
2018-09-29T12:14:41.759Z,2.80
2018-09-29T12:17:12.708Z,3.00
2018-09-29T12:19:43.520Z,2.70
2018-09-29T12:22:13.408Z,2.30
2018-09-29T12:24:44.240Z,3.47
2018-09-29T12:27:14.121Z,2.70
2018-09-29T12:29:46.087Z,2.40
2018-09-29T12:32:16.887Z,3.30
2018-09-29T12:34:48.650Z,2.40
2018-09-29T12:37:19.558Z,2.40
2018-09-29T12:39:50.235Z,2.70
2018-09-29T12:42:20.959Z,3.20
2018-09-29T12:44:51.989Z,3.30
2018-09-29T12:47:22.125Z,3.20
2018-09-29T12:49:53.768Z,2.93
2018-09-29T12:52:23.840Z,3.27
2018-09-29T12:54:54.616Z,3.17
2018-09-29T12:57:25.516Z,3.37
2018-09-29T12:59:55.510Z,2.40
2018-09-29T13:02:31.239Z,2.50
2018-09-29T13:05:02.310Z,2.40
2018-09-29T13:07:34.173Z,2.80
2018-09-29T13:10:06.829Z,3.17
2018-09-29T13:12:37.696Z,2.80
2018-09-29T13:15:08.908Z,3.07
2018-09-29T13:17:39.679Z,3.03
2018-09-29T13:22:50.295Z,2.30
2018-09-29T13:25:22.164Z,2.70
2018-09-29T13:27:53.461Z,1.80
2018-09-29T13:30:24.212Z,2.67
2018-09-29T13:32:55.057Z,2.87
2018-09-29T13:35:27.164Z,2.47
2018-09-29T13:38:03.904Z,2.30
2018-09-29T13:40:37.416Z,2.87
2018-09-29T13:43:09.712Z,2.50
2018-09-29T13:45:44.720Z,2.30
2018-09-29T13:51:10.404Z,1.67
2018-09-29T13:53:41.676Z,2.10
2018-09-29T13:56:12.490Z,2.50
2018-09-29T13:58:43.349Z,2.67
2018-09-29T14:01:14.233Z,2.27
2018-09-29T14:03:45.011Z,2.23
2018-09-29T14:06:15.858Z,2.57
2018-09-29T14:08:46.844Z,2.30
2018-09-29T14:11:23.623Z,2.60
2018-09-29T14:25:23.409Z,1.70
2018-09-29T14:29:05.761Z,2.50
2018-09-29T14:42:39.115Z,2.13
2018-09-29T15:07:25.718Z,2.03
2018-09-29T15:57:01.452Z,1.40
2018-09-29T15:59:33.580Z,2.17
2018-09-29T16:02:04.308Z,1.60
2018-09-29T16:04:35.549Z,1.40
2018-09-29T16:07:07.249Z,1.37
2018-09-29T16:09:39.465Z,2.60
2018-09-29T16:12:10.891Z,2.50
2018-09-29T16:14:41.675Z,1.50
2018-09-29T16:22:46.466Z,2.60
2018-09-29T16:25:18.500Z,1.33
2018-09-29T16:28:09.886Z,1.20
2018-09-29T16:30:41.602Z,1.63
2018-09-29T16:39:54.761Z,1.10
2018-09-29T16:45:22.907Z,1.00
2018-09-29T16:47:56.313Z,1.17
2018-09-29T16:50:28.568Z,1.23
2018-09-29T17:01:37.983Z,1.40
2018-09-29T17:04:12.549Z,1.40
2018-09-29T17:06:43.444Z,2.10
2018-09-29T17:09:15.541Z,1.87
2018-09-29T17:11:46.416Z,5.63
2018-09-29T17:14:17.895Z,6.60
2018-09-29T17:16:48.828Z,4.03
2018-09-29T17:19:31.856Z,4.40
2018-09-29T17:22:12.196Z,3.77
2018-09-29T17:24:45.040Z,5.57
2018-09-29T17:27:20.993Z,9.00
2018-09-29T17:40:02.420Z,16.70
2018-09-29T17:42:33.204Z,18.87
2018-09-29T17:45:04.523Z,18.80
2018-09-29T17:47:41.967Z,16.10
2018-09-29T17:50:13.937Z,15.93
2018-09-29T18:30:43.626Z,3.70
2018-09-29T18:33:16.642Z,4.30
2018-09-29T18:35:49.469Z,3.62
2018-09-29T18:38:21.251Z,5.60
2018-09-29T18:40:53.543Z,3.98
2018-09-29T18:43:24.952Z,3.17
2018-09-29T18:45:56.173Z,3.60
2018-09-29T18:48:26.785Z,3.83
2018-09-29T18:50:57.915Z,3.60
2018-09-29T18:53:28.597Z,3.67
2018-09-29T18:55:59.615Z,2.85
2018-09-29T18:58:30.497Z,2.70
2018-09-29T19:01:01.729Z,4.00
2018-09-29T19:03:33.167Z,3.90
2018-09-29T19:06:04.091Z,4.92
2018-09-29T19:08:35.412Z,4.50
2018-09-29T19:11:06.833Z,3.58
2018-09-29T19:13:37.416Z,4.30
2018-09-29T19:16:08.549Z,3.25
2018-09-29T19:18:41.351Z,2.47
2018-09-29T19:21:15.042Z,2.20
2018-09-29T19:23:46.196Z,2.25
2018-09-29T19:26:33.235Z,2.17
2018-09-29T19:29:07.858Z,3.62
2018-09-29T19:31:53.544Z,2.52
2018-09-29T19:34:28.866Z,2.70
2018-09-29T19:37:00.263Z,2.20
2018-09-29T19:39:32.332Z,3.20
2018-09-29T19:42:06.857Z,3.35
2018-09-29T19:44:45.649Z,2.50
2018-09-29T19:47:16.420Z,2.37
2018-09-29T19:49:47.372Z,2.70
2018-09-29T19:52:18.096Z,2.67
2018-09-29T19:54:53.272Z,2.12
2018-09-29T19:57:23.883Z,2.22
2018-09-29T19:59:54.827Z,1.90
2018-09-29T20:02:24.647Z,2.22
2018-09-29T20:04:54.504Z,2.12
2018-09-29T20:07:25.347Z,1.87
2018-09-29T20:09:56.230Z,2.00
2018-09-29T20:12:32.007Z,2.00
2018-09-29T20:15:03.775Z,2.10
2018-09-29T20:17:34.001Z,1.85
2018-09-29T20:20:04.774Z,1.62
2018-09-29T20:22:35.629Z,6.30
2018-09-29T20:25:06.486Z,4.08
2018-09-29T20:27:37.915Z,2.30
2018-09-29T20:30:09.237Z,2.20
2018-09-29T20:32:40.750Z,1.82
2018-09-29T20:35:11.676Z,2.22
2018-09-29T20:37:42.944Z,2.20
2018-09-29T20:40:14.404Z,2.10
2018-09-29T20:42:45.729Z,1.60
2018-09-29T20:45:16.331Z,2.05
2018-09-29T20:47:47.607Z,1.42
2018-09-29T20:50:19.141Z,2.65
2018-09-29T20:52:50.037Z,1.65
2018-09-29T20:55:21.369Z,1.32
2018-09-29T20:57:53.802Z,1.75
2018-09-29T21:00:24.621Z,1.62
2018-09-29T21:02:56.123Z,2.60
2018-09-29T21:05:32.259Z,1.55
2018-09-29T21:08:04.379Z,1.90
2018-09-29T21:10:35.191Z,1.37
2018-09-29T21:13:06.101Z,1.80
2018-09-29T21:15:38.659Z,2.30
2018-09-29T21:18:09.691Z,1.60
2018-09-29T21:20:41.094Z,1.45
2018-09-29T21:23:12.209Z,1.37
2018-09-29T21:25:43.137Z,2.17
2018-09-29T21:28:14.655Z,1.85
2018-09-29T21:30:45.117Z,1.55
2018-09-29T21:33:15.853Z,1.77
2018-09-29T21:35:46.770Z,5.28
2018-09-29T21:38:17.979Z,2.90
2018-09-29T21:40:48.488Z,2.33
2018-09-29T21:43:19.370Z,1.70
2018-09-29T21:45:50.984Z,1.30
2018-09-29T21:48:22.124Z,1.20
2018-09-29T21:50:52.761Z,1.50
2018-09-29T21:53:23.575Z,1.25
2018-09-29T21:55:53.671Z,1.12
2018-09-29T21:58:24.551Z,2.30
2018-09-29T22:00:55.340Z,1.80
2018-09-29T22:03:25.789Z,1.02
2018-09-29T22:05:56.226Z,1.70
2018-09-29T22:08:26.652Z,1.82
2018-09-29T22:10:57.079Z,1.60
2018-09-29T22:13:28.512Z,1.75
2018-09-29T22:15:58.987Z,1.37
2018-09-29T22:18:29.419Z,1.72
2018-09-29T22:20:59.922Z,1.32
2018-09-29T22:23:32.754Z,1.60
2018-09-29T22:26:02.770Z,1.10
2018-09-29T22:28:33.246Z,1.52
2018-09-29T22:31:04.736Z,1.55
2018-09-29T22:33:35.121Z,1.62
2018-09-29T22:36:07.162Z,2.15
2018-09-29T22:38:38.046Z,1.85
2018-09-29T22:41:08.450Z,1.72
2018-09-29T22:43:39.948Z,1.80
2018-09-29T22:46:10.460Z,1.32
2018-09-29T22:48:40.855Z,1.67
2018-09-29T22:51:11.335Z,1.50
2018-09-29T22:53:41.784Z,1.70
2018-09-29T22:56:13.184Z,1.42
2018-09-29T22:58:44.683Z,2.50
2018-09-29T23:01:15.155Z,1.57
2018-09-29T23:03:46.637Z,2.10
2018-09-29T23:06:17.089Z,1.85
2018-09-29T23:08:48.156Z,1.98
2018-09-29T23:11:19.024Z,2.00
2018-09-29T23:13:50.323Z,1.80
2018-09-29T23:16:20.950Z,1.60
2018-09-29T23:18:51.435Z,2.72
2018-09-29T23:21:23.831Z,2.17
2018-09-29T23:23:54.341Z,1.50
2018-09-29T23:26:24.763Z,1.90
2018-09-29T23:28:55.812Z,2.00
2018-09-29T23:31:26.722Z,1.67
2018-09-29T23:33:57.080Z,1.40
2018-09-29T23:36:27.627Z,2.77
2018-09-29T23:38:58.103Z,1.67
2018-09-29T23:41:28.560Z,1.92
2018-09-29T23:44:00.057Z,2.10
2018-09-29T23:46:31.479Z,2.00
2018-09-29T23:49:01.945Z,1.62
2018-09-29T23:51:32.406Z,2.55
2018-09-29T23:54:02.828Z,1.35
2018-09-29T23:56:34.300Z,2.05
2018-09-29T23:59:04.787Z,2.15
